Time;durP1;ratioP1;P1;durP2;ratioP2;P2;SDS_P1;SDS_P2;PMS_P1;PMS_P2;Temp;Humidity;BMP_temperature;BMP_pressure;BME280_temperature;BME280_humidity;BME280_pressure;Samples;Min_cycle;Max_cycle;Signal;HPM_P1;HPM_P2
2021/03/01 00:02:17;;;;;;;23.37;14.77;;;0.70;99.90;;;;;;5130270;27;20448;-67
2021/03/01 00:04:43;;;;;;;24.67;16.00;;;0.60;99.90;;;;;;5129785;27;20469;-68
2021/03/01 00:07:10;;;;;;;22.40;13.47;;;0.50;99.90;;;;;;5130586;27;20480;-68
2021/03/01 00:09:36;;;;;;;21.17;15.40;;;0.50;99.90;;;;;;5124542;27;20447;-67
2021/03/01 00:12:03;;;;;;;22.53;15.40;;;0.50;99.90;;;;;;5127651;27;20492;-67
2021/03/01 00:14:30;;;;;;;26.40;16.60;;;0.50;99.90;;;;;;5129735;27;20483;-67
2021/03/01 00:16:57;;;;;;;22.37;13.60;;;0.50;99.90;;;;;;5130409;27;20445;-68
2021/03/01 00:19:23;;;;;;;28.43;17.53;;;0.60;99.90;;;;;;5130375;27;20483;-67
2021/03/01 00:21:50;;;;;;;30.03;15.50;;;0.50;99.90;;;;;;5129650;27;20476;-69
2021/03/01 00:24:17;;;;;;;23.57;14.20;;;0.40;99.90;;;;;;5126387;27;20472;-68
2021/03/01 00:26:43;;;;;;;24.10;13.97;;;0.40;99.90;;;;;;5129381;27;20453;-70
2021/03/01 00:29:09;;;;;;;22.90;14.57;;;0.30;99.90;;;;;;5122042;27;20457;-67
2021/03/01 00:31:36;;;;;;;23.70;15.37;;;0.20;99.90;;;;;;5110213;28;20446;-67
2021/03/01 00:34:03;;;;;;;21.43;13.80;;;0.20;99.90;;;;;;5110364;28;20469;-68
2021/03/01 00:36:29;;;;;;;20.30;13.60;;;0.20;99.90;;;;;;5110979;28;20441;-68
2021/03/01 00:38:56;;;;;;;18.87;13.33;;;0.30;99.90;;;;;;5111139;28;20441;-68
2021/03/01 00:41:22;;;;;;;20.03;13.43;;;0.30;99.90;;;;;;5111406;28;20842;-68
2021/03/01 00:43:48;;;;;;;21.30;12.73;;;0.30;99.90;;;;;;5110863;28;21139;-67
2021/03/01 00:46:14;;;;;;;24.43;13.97;;;0.30;99.90;;;;;;5111224;28;20444;-68
2021/03/01 00:48:41;;;;;;;18.67;12.63;;;0.20;99.90;;;;;;5111536;28;20847;-68
2021/03/01 00:51:08;;;;;;;18.50;14.37;;;0.20;99.90;;;;;;5111332;28;20448;-68
2021/03/01 00:53:34;;;;;;;19.23;12.93;;;0.20;99.90;;;;;;5110483;28;20561;-68
2021/03/01 00:56:01;;;;;;;18.37;11.60;;;0.20;99.90;;;;;;5111145;28;20449;-68
2021/03/01 00:58:27;;;;;;;20.10;13.50;;;0.20;99.90;;;;;;5111331;28;20460;-69
2021/03/01 01:00:53;;;;;;;22.33;12.50;;;0.20;99.90;;;;;;5111550;28;21000;-68
2021/03/01 01:03:20;;;;;;;19.00;13.37;;;0.10;99.90;;;;;;5110748;28;20556;-69
2021/03/01 01:05:47;;;;;;;17.57;13.67;;;0.10;99.90;;;;;;5111224;28;20445;-68
2021/03/01 01:08:14;;;;;;;22.87;14.87;;;0.10;99.90;;;;;;5110947;28;20560;-68
2021/03/01 01:10:40;;;;;;;20.37;13.40;;;0.10;99.90;;;;;;5111291;28;20441;-67
2021/03/01 01:13:07;;;;;;;19.90;13.30;;;0.10;99.90;;;;;;5111073;28;20444;-67
2021/03/01 01:15:34;;;;;;;20.60;13.33;;;0.10;99.90;;;;;;5110428;28;20445;-67
2021/03/01 01:18:01;;;;;;;16.77;12.10;;;0.10;99.90;;;;;;5110893;28;20870;-67
2021/03/01 01:20:28;;;;;;;20.57;13.83;;;0.00;99.90;;;;;;5110904;28;20445;-69
2021/03/01 01:22:54;;;;;;;21.23;13.90;;;0.00;99.90;;;;;;5110591;28;20457;-69
2021/03/01 01:25:21;;;;;;;19.63;13.97;;;-0.10;99.90;;;;;;5110401;28;20463;-67
2021/03/01 01:27:47;;;;;;;18.83;13.00;;;-0.10;99.90;;;;;;5111030;28;20481;-68
2021/03/01 01:30:17;;;;;;;19.70;12.47;;;-0.10;99.90;;;;;;5110857;28;20532;-67
2021/03/01 01:32:43;;;;;;;20.70;13.93;;;-0.20;99.90;;;;;;5110743;28;20453;-68
2021/03/01 01:35:12;;;;;;;21.80;14.40;;;-0.20;99.90;;;;;;5109876;28;20461;-68
2021/03/01 01:37:39;;;;;;;21.87;15.07;;;-0.20;99.90;;;;;;5110695;28;20441;-68
2021/03/01 01:40:08;;;;;;;20.10;13.10;;;-0.20;99.90;;;;;;5110674;28;20441;-69
2021/03/01 01:42:36;;;;;;;16.80;13.07;;;-0.20;99.90;;;;;;5110813;28;20524;-68
2021/03/01 01:45:07;;;;;;;20.80;13.17;;;-0.30;99.90;;;;;;5112820;28;20461;-69
2021/03/01 01:47:34;;;;;;;17.53;12.47;;;-0.30;99.90;;;;;;5114351;28;20481;-68
2021/03/01 01:50:00;;;;;;;22.50;14.87;;;-0.30;99.90;;;;;;5114171;28;20449;-69
2021/03/01 01:52:26;;;;;;;18.63;14.03;;;-0.40;99.90;;;;;;5114445;27;20954;-69
2021/03/01 01:54:53;;;;;;;19.70;13.43;;;-0.40;99.90;;;;;;5113701;28;20902;-69
2021/03/01 01:57:19;;;;;;;19.70;13.73;;;-0.40;99.90;;;;;;5114093;28;20516;-69
2021/03/01 01:59:46;;;;;;;22.90;13.50;;;-0.50;99.90;;;;;;5114445;28;20448;-69
2021/03/01 02:02:14;;;;;;;17.53;12.37;;;-0.50;99.90;;;;;;5114235;28;20445;-69
2021/03/01 02:04:42;;;;;;;20.73;12.77;;;-0.60;99.90;;;;;;5113290;28;20465;-68
2021/03/01 02:07:14;;;;;;;18.80;12.43;;;-0.60;99.90;;;;;;5111552;28;20449;-70
2021/03/01 02:09:56;;;;;;;20.93;12.93;;;-0.70;99.90;;;;;;5106182;28;20492;-68
2021/03/01 02:12:34;;;;;;;19.37;12.93;;;-0.60;99.90;;;;;;5112054;28;20441;-69
2021/03/01 02:15:08;;;;;;;17.23;11.60;;;-0.70;99.90;;;;;;5112915;27;20463;-68
2021/03/01 02:17:34;;;;;;;20.43;12.80;;;-0.70;99.90;;;;;;5113785;28;20444;-68
2021/03/01 02:20:02;;;;;;;19.00;13.60;;;-0.60;99.90;;;;;;5113881;28;20465;-68
2021/03/01 02:22:29;;;;;;;18.87;13.10;;;-0.70;99.90;;;;;;5113344;28;20447;-68
2021/03/01 02:24:59;;;;;;;20.50;12.03;;;-0.70;99.90;;;;;;5112926;28;21018;-68
2021/03/01 02:27:31;;;;;;;21.10;13.43;;;-0.70;99.90;;;;;;5113429;28;20469;-69
2021/03/01 02:30:03;;;;;;;18.67;13.10;;;-0.80;99.90;;;;;;5113815;28;20452;-68
2021/03/01 02:32:32;;;;;;;22.33;13.40;;;-0.90;99.90;;;;;;5113452;28;20477;-69
2021/03/01 02:35:00;;;;;;;20.00;12.60;;;-0.90;99.90;;;;;;5112734;28;20623;-68
2021/03/01 02:37:30;;;;;;;21.37;14.13;;;-1.00;99.90;;;;;;5113064;28;20437;-67
2021/03/01 02:39:58;;;;;;;19.80;13.50;;;-1.00;99.90;;;;;;5113324;27;20879;-67
2021/03/01 02:42:26;;;;;;;18.80;13.70;;;-1.00;99.90;;;;;;5113707;28;20955;-68
2021/03/01 02:44:53;;;;;;;17.93;13.23;;;-0.90;99.90;;;;;;5112171;28;20509;-67
2021/03/01 02:47:21;;;;;;;21.77;14.83;;;-0.90;99.90;;;;;;5113050;28;20617;-68
2021/03/01 02:49:48;;;;;;;23.23;14.40;;;-0.80;99.90;;;;;;5113184;28;20449;-68
2021/03/01 02:52:15;;;;;;;20.40;14.83;;;-0.90;99.90;;;;;;5113060;28;20443;-68
2021/03/01 02:54:43;;;;;;;18.30;14.13;;;-0.90;99.90;;;;;;5111753;28;20497;-68
2021/03/01 02:57:12;;;;;;;22.73;15.10;;;-1.00;99.90;;;;;;5113249;28;20509;-68
2021/03/01 02:59:40;;;;;;;21.70;13.23;;;-0.90;99.90;;;;;;5112998;28;20907;-69
2021/03/01 03:02:08;;;;;;;20.07;12.77;;;-0.90;99.90;;;;;;5112464;28;20969;-68
2021/03/01 03:04:35;;;;;;;19.97;13.30;;;-0.80;99.90;;;;;;5111035;28;20526;-68
2021/03/01 03:07:03;;;;;;;20.20;13.80;;;-0.90;99.90;;;;;;5112490;28;20437;-68
2021/03/01 03:09:30;;;;;;;23.80;13.80;;;-1.00;99.90;;;;;;5112908;28;20475;-71
2021/03/01 03:12:01;;;;;;;20.83;13.90;;;-1.00;99.90;;;;;;5112755;28;20445;-67
2021/03/01 03:14:29;;;;;;;22.43;15.00;;;-0.90;99.90;;;;;;5110235;28;20553;-67
2021/03/01 03:16:58;;;;;;;21.57;14.93;;;-0.90;99.90;;;;;;5112522;28;20848;-67
2021/03/01 03:19:25;;;;;;;29.30;14.33;;;-0.80;99.90;;;;;;5112506;28;20459;-67
2021/03/01 03:21:52;;;;;;;18.87;13.17;;;-0.80;99.90;;;;;;5112423;28;20459;-67
2021/03/01 03:24:18;;;;;;;18.63;14.77;;;-0.90;99.90;;;;;;5110548;28;20481;-67
2021/03/01 03:26:44;;;;;;;21.50;14.70;;;-1.00;99.90;;;;;;5112503;28;20546;-68
2021/03/01 03:29:12;;;;;;;20.70;13.20;;;-1.10;99.90;;;;;;5112495;28;20911;-66
2021/03/01 03:31:38;;;;;;;19.37;13.70;;;-1.00;99.90;;;;;;5112201;28;20453;-67
2021/03/01 03:34:07;;;;;;;21.27;14.27;;;-1.00;99.90;;;;;;5111519;28;20465;-66
2021/03/01 03:36:39;;;;;;;16.80;12.83;;;-1.00;99.90;;;;;;5112397;28;20448;-67
2021/03/01 03:39:09;;;;;;;21.40;14.17;;;-1.10;99.90;;;;;;5112376;28;20809;-67
2021/03/01 03:41:37;;;;;;;20.83;13.50;;;-1.10;99.90;;;;;;5112553;28;20446;-67
2021/03/01 03:44:07;;;;;;;23.13;13.53;;;-1.20;99.90;;;;;;5111412;28;20544;-67
2021/03/01 03:46:35;;;;;;;20.07;12.73;;;-1.20;99.90;;;;;;5112102;28;20824;-67
2021/03/01 03:49:03;;;;;;;23.90;14.60;;;-1.20;99.90;;;;;;5112187;28;20481;-67
2021/03/01 03:51:32;;;;;;;21.70;14.80;;;-1.10;99.90;;;;;;5112024;28;20451;-68
2021/03/01 03:54:05;;;;;;;20.33;13.90;;;-1.20;99.90;;;;;;5111231;28;20498;-68
2021/03/01 03:56:33;;;;;;;19.33;13.80;;;-1.20;99.90;;;;;;5111937;28;20955;-68
2021/03/01 03:59:02;;;;;;;20.03;13.50;;;-1.20;99.90;;;;;;5111664;28;20441;-68
2021/03/01 04:01:33;;;;;;;22.00;14.63;;;-1.20;99.90;;;;;;5111665;28;21124;-68
2021/03/01 04:04:04;;;;;;;23.60;15.13;;;-1.20;99.90;;;;;;5111020;28;20470;-68
2021/03/01 04:06:32;;;;;;;18.70;13.50;;;-1.20;99.90;;;;;;5110840;28;20988;-68
2021/03/01 04:08:59;;;;;;;21.13;13.23;;;-1.20;99.90;;;;;;5111637;28;20495;-68
2021/03/01 04:11:28;;;;;;;19.83;13.20;;;-1.30;99.90;;;;;;5111660;28;20533;-68
2021/03/01 04:13:56;;;;;;;19.80;13.53;;;-1.30;99.90;;;;;;5110843;28;20507;-68
2021/03/01 04:16:23;;;;;;;19.53;12.93;;;-1.40;99.90;;;;;;5111913;28;20449;-68
2021/03/01 04:18:52;;;;;;;18.83;14.50;;;-1.40;99.90;;;;;;5111487;28;21049;-68
2021/03/01 04:21:21;;;;;;;24.80;14.40;;;-1.30;99.90;;;;;;5111801;28;20489;-68
2021/03/01 04:23:50;;;;;;;17.13;14.07;;;-1.30;99.90;;;;;;5110596;28;21215;-68
2021/03/01 04:26:17;;;;;;;19.60;13.83;;;-1.30;99.90;;;;;;5111888;28;20450;-68
2021/03/01 04:28:44;;;;;;;22.30;12.97;;;-1.30;99.90;;;;;;5111703;28;20481;-68
2021/03/01 04:31:12;;;;;;;22.10;13.43;;;-1.30;99.90;;;;;;5111583;28;20433;-70
2021/03/01 04:33:40;;;;;;;20.50;15.10;;;-1.30;99.90;;;;;;5110232;28;20430;-68
2021/03/01 04:36:09;;;;;;;22.17;15.40;;;-1.30;99.90;;;;;;5111524;28;20256;-69
2021/03/01 04:38:37;;;;;;;21.00;14.20;;;-1.30;99.90;;;;;;5111500;28;20441;-68
2021/03/01 04:41:04;;;;;;;20.00;12.97;;;-1.30;99.90;;;;;;5111711;28;20445;-67
2021/03/01 04:43:33;;;;;;;19.03;13.57;;;-1.30;99.90;;;;;;5111186;28;20461;-68
2021/03/01 04:46:00;;;;;;;24.50;15.13;;;-1.40;99.90;;;;;;5111631;28;20527;-68
2021/03/01 04:48:30;;;;;;;21.37;13.20;;;-1.40;99.90;;;;;;5112172;28;20568;-68
2021/03/01 04:50:57;;;;;;;22.37;14.37;;;-1.40;99.90;;;;;;5112605;28;20441;-68
2021/03/01 04:53:24;;;;;;;22.37;14.30;;;-1.40;99.90;;;;;;5111887;28;20560;-67
2021/03/01 04:55:53;;;;;;;20.50;12.67;;;-1.40;99.90;;;;;;5111845;28;20445;-67
2021/03/01 04:58:20;;;;;;;24.30;14.37;;;-1.40;99.90;;;;;;5112531;28;20437;-68
2021/03/01 05:00:47;;;;;;;23.37;15.40;;;-1.40;99.90;;;;;;5111803;28;20459;-69
2021/03/01 05:03:14;;;;;;;19.70;12.80;;;-1.30;99.90;;;;;;5111459;28;20461;-68
2021/03/01 05:05:41;;;;;;;22.67;13.23;;;-1.30;99.90;;;;;;5110611;28;20438;-68
2021/03/01 05:08:13;;;;;;;22.43;13.33;;;-1.30;99.90;;;;;;5111249;28;20527;-67
2021/03/01 05:10:39;;;;;;;18.90;12.90;;;-1.30;99.90;;;;;;5111286;28;20540;-67
2021/03/01 05:13:07;;;;;;;22.47;14.70;;;-1.20;99.90;;;;;;5111148;28;20999;-68
2021/03/01 05:15:34;;;;;;;20.57;14.50;;;-1.30;99.90;;;;;;5110484;28;20529;-69
2021/03/01 05:18:01;;;;;;;20.37;14.33;;;-1.30;99.90;;;;;;5112254;28;20451;-68
2021/03/01 05:20:27;;;;;;;18.97;13.00;;;-1.40;99.90;;;;;;5115026;28;20445;-68
2021/03/01 05:22:53;;;;;;;22.83;14.80;;;-1.50;99.90;;;;;;5114860;28;20622;-68
2021/03/01 05:25:20;;;;;;;21.77;12.87;;;-1.60;99.90;;;;;;5114256;27;20445;-68
2021/03/01 05:27:46;;;;;;;20.77;13.70;;;-1.60;99.90;;;;;;5114712;28;20473;-68
2021/03/01 05:30:14;;;;;;;20.73;13.17;;;-1.60;99.90;;;;;;5114966;28;20448;-70
2021/03/01 05:32:40;;;;;;;25.00;14.87;;;-1.60;99.90;;;;;;5114745;28;20951;-68
2021/03/01 05:35:09;;;;;;;19.90;13.60;;;-1.60;99.90;;;;;;5113895;28;20583;-68
2021/03/01 05:37:35;;;;;;;21.30;14.90;;;-1.50;99.90;;;;;;5114852;28;20441;-68
2021/03/01 05:40:02;;;;;;;22.67;13.30;;;-1.40;99.90;;;;;;5114164;28;20965;-68
2021/03/01 05:42:30;;;;;;;21.70;14.10;;;-1.50;99.90;;;;;;5114757;28;20445;-69
2021/03/01 05:44:58;;;;;;;23.13;14.43;;;-1.60;99.90;;;;;;5113316;28;20548;-68
2021/03/01 05:47:26;;;;;;;20.77;14.37;;;-1.70;99.90;;;;;;5114423;28;20459;-68
2021/03/01 05:49:55;;;;;;;19.43;14.40;;;-1.70;99.90;;;;;;5114467;28;20441;-68
2021/03/01 05:52:22;;;;;;;20.97;13.30;;;-1.70;99.90;;;;;;5114370;28;20467;-68
2021/03/01 05:54:49;;;;;;;21.97;14.17;;;-1.70;99.90;;;;;;5110764;28;20452;-69
2021/03/01 05:57:18;;;;;;;23.00;12.83;;;-1.60;99.90;;;;;;5112033;28;20437;-70
2021/03/01 05:59:47;;;;;;;21.33;13.80;;;-1.70;99.90;;;;;;5114193;28;20490;-68
2021/03/01 06:02:15;;;;;;;20.03;14.20;;;-1.60;99.90;;;;;;5114001;28;20445;-69
2021/03/01 06:04:43;;;;;;;22.40;13.97;;;-1.60;99.90;;;;;;5113069;28;20461;-68
2021/03/01 06:07:09;;;;;;;18.33;13.20;;;-1.60;99.90;;;;;;5113691;28;20467;-68
2021/03/01 06:09:36;;;;;;;25.03;14.67;;;-1.60;99.90;;;;;;5112344;28;20477;-68
2021/03/01 06:12:03;;;;;;;20.90;13.70;;;-1.50;99.90;;;;;;5103443;28;20514;-70
2021/03/01 06:14:29;;;;;;;24.27;14.03;;;-1.60;99.90;;;;;;5091377;28;20468;-69
2021/03/01 06:17:12;;;;;;;18.00;13.30;;;-1.50;99.90;;;;;;5092254;28;20453;-69
2021/03/01 06:19:53;;;;;;;23.23;12.97;;;-1.60;99.90;;;;;;5092954;28;20445;-69
2021/03/01 06:22:21;;;;;;;21.73;14.17;;;-1.70;99.90;;;;;;5092362;28;20454;-69
2021/03/01 06:25:07;;;;;;;19.73;12.97;;;-1.60;99.90;;;;;;5091452;28;20472;-69
2021/03/01 06:27:46;;;;;;;20.93;14.23;;;-1.60;99.90;;;;;;5095885;28;20943;-67
2021/03/01 06:30:14;;;;;;;21.80;12.97;;;-1.60;99.90;;;;;;5112043;28;20429;-69
2021/03/01 06:32:41;;;;;;;20.13;14.27;;;-1.60;99.90;;;;;;5113777;28;21045;-68
2021/03/01 06:35:27;;;;;;;21.07;14.10;;;-1.60;99.90;;;;;;5112077;28;20461;-67
2021/03/01 06:38:13;;;;;;;24.03;14.57;;;-1.60;99.90;;;;;;5112851;28;20434;-68
2021/03/01 06:40:40;;;;;;;23.30;15.27;;;-1.40;99.90;;;;;;5111943;28;20445;-74
2021/03/01 06:43:10;;;;;;;18.80;13.13;;;-1.30;99.90;;;;;;5112188;28;20599;-69
2021/03/01 06:45:36;;;;;;;23.63;14.80;;;-1.30;99.90;;;;;;5111351;28;20866;-68
2021/03/01 06:48:03;;;;;;;20.10;13.90;;;-1.20;99.90;;;;;;5090959;27;20481;-69
2021/03/01 06:50:33;;;;;;;22.60;15.10;;;-1.20;99.90;;;;;;5098703;28;20454;-69
2021/03/01 06:53:01;;;;;;;24.10;13.87;;;-1.10;99.90;;;;;;5090623;28;20498;-69
2021/03/01 06:55:29;;;;;;;20.80;13.57;;;-1.00;99.90;;;;;;5093061;28;21019;-69
2021/03/01 06:57:55;;;;;;;24.30;14.50;;;-1.00;99.90;;;;;;5110707;28;20532;-69
2021/03/01 07:00:27;;;;;;;24.30;13.90;;;-0.90;99.90;;;;;;5110890;28;20438;-69
2021/03/01 07:02:54;;;;;;;23.13;14.23;;;-0.80;99.90;;;;;;5111526;27;20452;-69
2021/03/01 07:05:22;;;;;;;20.33;13.87;;;-0.70;99.90;;;;;;5109926;28;20827;-70
2021/03/01 07:07:49;;;;;;;21.73;14.63;;;-0.60;99.90;;;;;;5110817;28;20481;-71
2021/03/01 07:10:16;;;;;;;23.70;15.00;;;-0.50;99.90;;;;;;5110212;28;20450;-69
2021/03/01 07:12:44;;;;;;;21.30;11.93;;;-0.50;99.90;;;;;;5110916;28;20544;-69
2021/03/01 07:15:12;;;;;;;19.20;14.80;;;-0.40;99.90;;;;;;5110234;28;20465;-70
2021/03/01 07:17:42;;;;;;;25.67;15.17;;;-0.20;99.90;;;;;;5102910;28;20502;-70
2021/03/01 07:20:11;;;;;;;21.50;14.50;;;-0.10;99.90;;;;;;5098977;28;20544;-70
2021/03/01 07:22:40;;;;;;;24.47;14.30;;;0.00;99.90;;;;;;5090456;28;20450;-70
2021/03/01 07:25:11;;;;;;;20.53;13.83;;;0.00;99.90;;;;;;5089685;28;20518;-69
2021/03/01 07:27:42;;;;;;;23.30;13.40;;;0.10;99.90;;;;;;5090473;28;20474;-70
2021/03/01 07:30:10;;;;;;;22.40;13.13;;;0.20;99.90;;;;;;5090323;28;20936;-68
2021/03/01 07:32:38;;;;;;;17.47;12.50;;;0.30;99.90;;;;;;5090550;28;20453;-70
2021/03/01 07:35:06;;;;;;;22.70;14.13;;;0.40;99.90;;;;;;5089175;28;20472;-68
2021/03/01 07:37:34;;;;;;;19.93;13.90;;;0.60;99.90;;;;;;5110146;28;20446;-69
2021/03/01 07:40:01;;;;;;;21.10;14.27;;;0.70;99.90;;;;;;5109704;28;20449;-70
2021/03/01 07:42:30;;;;;;;26.70;13.87;;;0.80;99.90;;;;;;5110084;28;20437;-69
2021/03/01 07:44:57;;;;;;;20.70;14.20;;;0.90;99.90;;;;;;5109357;28;20552;-70
2021/03/01 07:47:28;;;;;;;18.83;14.40;;;1.00;99.90;;;;;;5110191;28;20520;-70
2021/03/01 07:49:55;;;;;;;21.03;14.10;;;1.10;99.90;;;;;;5109903;28;20933;-69
2021/03/01 07:52:34;;;;;;;20.73;14.70;;;1.20;99.90;;;;;;5110200;28;20448;-70
2021/03/01 07:55:04;;;;;;;20.83;16.20;;;1.30;99.90;;;;;;5104344;28;20536;-70
2021/03/01 07:57:32;;;;;;;18.37;13.20;;;1.50;99.90;;;;;;5110375;28;20441;-70
2021/03/01 08:00:00;;;;;;;20.80;13.67;;;1.70;99.90;;;;;;5109653;28;20520;-71
2021/03/01 08:02:29;;;;;;;22.17;14.07;;;1.80;99.90;;;;;;5109926;28;20433;-68
2021/03/01 08:04:57;;;;;;;19.83;13.30;;;1.90;99.90;;;;;;5108969;28;20862;-69
2021/03/01 08:07:41;;;;;;;23.33;13.90;;;1.90;99.90;;;;;;5110327;28;20442;-69
2021/03/01 08:10:10;;;;;;;19.77;14.00;;;2.10;99.90;;;;;;5108765;28;20454;-70
2021/03/01 08:13:01;;;;;;;21.73;13.90;;;2.20;99.90;;;;;;5110039;28;20498;-69
2021/03/01 08:15:30;;;;;;;18.10;13.23;;;2.30;99.90;;;;;;5109667;28;20441;-70
2021/03/01 08:17:57;;;;;;;21.53;14.53;;;2.40;99.90;;;;;;5110155;28;20437;-70
2021/03/01 08:20:45;;;;;;;18.83;13.10;;;2.60;99.90;;;;;;5109885;28;20475;-70
2021/03/01 08:23:17;;;;;;;17.93;12.70;;;2.70;99.90;;;;;;5109988;28;20481;-70
2021/03/01 08:25:56;;;;;;;21.20;13.00;;;2.80;99.90;;;;;;5109141;28;20445;-73
2021/03/01 08:28:55;;;;;;;20.40;12.80;;;3.00;99.90;;;;;;5109832;28;21197;-70
2021/03/01 08:31:23;;;;;;;21.07;13.20;;;3.20;99.90;;;;;;5109676;28;20491;-69
2021/03/01 08:33:49;;;;;;;16.33;12.30;;;3.30;99.90;;;;;;5109017;28;20453;-69
2021/03/01 08:36:26;;;;;;;17.53;13.50;;;3.40;99.90;;;;;;5109647;28;20528;-72
2021/03/01 08:38:56;;;;;;;19.00;12.90;;;3.50;99.90;;;;;;5109845;28;20467;-71
2021/03/01 08:41:44;;;;;;;20.97;12.70;;;3.70;99.90;;;;;;5109429;28;20452;-70
2021/03/01 08:44:19;;;;;;;15.47;12.30;;;3.80;99.90;;;;;;5108991;28;20552;-70
2021/03/01 08:46:45;;;;;;;19.50;14.10;;;4.10;99.90;;;;;;5109327;28;20955;-70
2021/03/01 08:49:22;;;;;;;18.00;13.00;;;4.20;99.90;;;;;;5109121;28;20566;-70
2021/03/01 08:51:49;;;;;;;17.90;11.60;;;4.40;99.90;;;;;;5109088;28;20523;-70
2021/03/01 08:54:26;;;;;;;17.40;12.13;;;4.60;99.90;;;;;;5102857;28;20470;-67
2021/03/01 08:57:01;;;;;;;17.33;12.30;;;4.90;99.90;;;;;;5100419;28;20440;-67
2021/03/01 08:59:28;;;;;;;18.03;12.00;;;5.00;99.90;;;;;;5112505;28;20531;-69
2021/03/01 09:01:55;;;;;;;15.07;10.77;;;5.20;99.90;;;;;;5104610;28;20543;-69
2021/03/01 09:04:21;;;;;;;16.97;12.37;;;5.50;99.90;;;;;;5103381;28;20540;-69
2021/03/01 09:06:47;;;;;;;15.50;12.00;;;5.70;99.90;;;;;;5112385;28;20437;-68
2021/03/01 09:09:14;;;;;;;12.90;10.57;;;6.20;99.90;;;;;;5112759;28;20468;-68
2021/03/01 09:11:40;;;;;;;16.10;11.73;;;6.80;99.90;;;;;;5112157;28;20488;-69
2021/03/01 09:14:08;;;;;;;12.77;10.07;;;7.30;99.90;;;;;;5112151;28;20460;-69
2021/03/01 09:16:37;;;;;;;16.87;11.37;;;7.70;99.90;;;;;;5113136;28;20532;-69
2021/03/01 09:19:05;;;;;;;15.30;12.00;;;7.60;99.90;;;;;;5112847;27;20516;-69
2021/03/01 09:21:36;;;;;;;13.77;11.17;;;8.00;99.90;;;;;;5112509;28;20453;-68
2021/03/01 09:24:03;;;;;;;15.73;11.87;;;8.40;99.90;;;;;;5111301;28;20967;-69
2021/03/01 09:26:32;;;;;;;12.37;11.07;;;8.60;99.90;;;;;;5112850;28;20441;-70
2021/03/01 09:29:00;;;;;;;14.03;10.40;;;8.70;99.90;;;;;;5112942;28;20480;-70
2021/03/01 09:31:27;;;;;;;11.70;10.50;;;8.90;99.90;;;;;;5111541;28;20532;-69
2021/03/01 09:33:55;;;;;;;17.37;11.13;;;9.10;99.90;;;;;;5111560;28;20457;-69
2021/03/01 09:36:26;;;;;;;13.07;11.67;;;9.30;99.90;;;;;;5112410;28;20468;-71
2021/03/01 09:38:54;;;;;;;14.47;10.63;;;9.10;99.90;;;;;;5112528;27;20464;-73
2021/03/01 09:41:21;;;;;;;12.53;11.17;;;9.30;99.90;;;;;;5109667;28;20944;-72
2021/03/01 09:43:49;;;;;;;11.67;9.80;;;9.40;99.90;;;;;;5111539;28;20467;-70
2021/03/01 09:46:17;;;;;;;12.03;10.43;;;9.40;99.90;;;;;;5115387;27;20444;-70
2021/03/01 09:48:46;;;;;;;13.40;10.23;;;9.70;99.90;;;;;;5114585;28;20483;-71
2021/03/01 09:51:14;;;;;;;12.30;10.67;;;10.20;99.90;;;;;;5114198;28;20590;-71
2021/03/01 09:53:41;;;;;;;15.27;10.53;;;10.40;99.90;;;;;;5111284;28;20556;-71
2021/03/01 09:56:07;;;;;;;11.40;9.00;;;10.70;99.90;;;;;;5112322;28;20445;-70
2021/03/01 09:58:39;;;;;;;11.70;9.57;;;11.00;98.30;;;;;;5112366;28;20437;-70
2021/03/01 10:01:07;;;;;;;11.87;10.40;;;10.90;97.80;;;;;;5101329;28;20491;-70
2021/03/01 10:03:41;;;;;;;10.67;8.90;;;11.00;97.40;;;;;;5095802;28;20455;-69
2021/03/01 10:06:09;;;;;;;10.93;9.20;;;10.60;96.80;;;;;;5091113;28;20438;-68
2021/03/01 10:08:36;;;;;;;12.37;9.50;;;10.60;96.70;;;;;;5091562;28;20581;-70
2021/03/01 10:11:03;;;;;;;10.57;9.27;;;10.70;96.80;;;;;;5091360;28;20529;-70
2021/03/01 10:13:33;;;;;;;11.27;9.10;;;10.90;96.90;;;;;;5090299;28;21131;-70
2021/03/01 10:16:00;;;;;;;12.33;10.30;;;11.20;96.30;;;;;;5091315;28;20495;-70
2021/03/01 10:18:28;;;;;;;11.90;10.20;;;11.00;95.50;;;;;;5091024;28;20503;-70
2021/03/01 10:21:00;;;;;;;11.90;10.07;;;10.80;95.80;;;;;;5090881;28;20442;-70
2021/03/01 10:23:31;;;;;;;16.40;11.20;;;10.80;97.10;;;;;;5090700;28;20483;-70
2021/03/01 10:26:16;;;;;;;19.80;10.83;;;10.80;97.00;;;;;;5091097;28;20504;-71
2021/03/01 10:28:51;;;;;;;13.77;10.87;;;10.80;96.70;;;;;;5091799;28;20486;-71
2021/03/01 10:31:19;;;;;;;12.93;9.47;;;10.90;97.20;;;;;;5092215;28;20535;-71
2021/03/01 10:33:57;;;;;;;14.33;10.90;;;10.80;97.10;;;;;;5102784;28;20536;-71
2021/03/01 10:36:25;;;;;;;11.30;10.00;;;11.00;96.90;;;;;;5111330;27;20438;-71
2021/03/01 10:38:57;;;;;;;12.70;10.70;;;11.00;96.80;;;;;;5111025;28;20524;-70
2021/03/01 10:41:27;;;;;;;14.27;10.93;;;11.00;97.00;;;;;;5110817;28;20494;-71
2021/03/01 10:43:55;;;;;;;12.20;10.50;;;11.10;97.90;;;;;;5109789;28;21046;-71
2021/03/01 10:46:33;;;;;;;12.33;9.30;;;11.20;96.40;;;;;;5110720;28;20521;-71
2021/03/01 10:49:00;;;;;;;13.07;10.23;;;11.10;96.40;;;;;;5111240;28;20588;-71
2021/03/01 10:51:26;;;;;;;13.03;9.50;;;11.10;96.30;;;;;;5110007;28;20449;-70
2021/03/01 10:53:53;;;;;;;10.40;9.30;;;11.30;96.30;;;;;;5110092;27;20904;-70
2021/03/01 10:56:19;;;;;;;10.73;9.50;;;11.40;96.40;;;;;;5111164;28;20520;-71
2021/03/01 10:58:46;;;;;;;16.00;9.33;;;11.60;95.80;;;;;;5107076;28;20524;-71
2021/03/01 11:01:13;;;;;;;13.80;9.70;;;11.90;95.00;;;;;;5110806;28;20441;-71
2021/03/01 11:03:39;;;;;;;11.00;8.93;;;11.90;94.00;;;;;;5110084;28;20548;-70
2021/03/01 11:06:06;;;;;;;9.67;8.70;;;12.10;94.90;;;;;;5110617;28;21150;-70
2021/03/01 11:08:32;;;;;;;10.93;9.00;;;12.20;93.50;;;;;;5110591;28;20477;-71
2021/03/01 11:10:59;;;;;;;10.80;8.83;;;12.30;93.40;;;;;;5110643;28;20516;-71
2021/03/01 11:13:25;;;;;;;12.57;8.47;;;12.10;92.70;;;;;;5109860;28;20547;-70
2021/03/01 11:15:52;;;;;;;10.87;9.23;;;12.20;93.30;;;;;;5109824;28;20566;-71
2021/03/01 11:18:19;;;;;;;11.20;9.50;;;12.20;92.30;;;;;;5110717;28;20519;-71
2021/03/01 11:20:45;;;;;;;10.00;8.90;;;12.20;92.10;;;;;;5109993;28;20921;-71
2021/03/01 11:23:11;;;;;;;13.20;9.83;;;12.40;92.00;;;;;;5110300;28;20441;-71
2021/03/01 11:25:38;;;;;;;12.37;8.53;;;12.50;91.70;;;;;;5109487;28;20437;-71
2021/03/01 11:28:05;;;;;;;9.30;8.30;;;12.60;90.50;;;;;;5110633;28;20445;-71
2021/03/01 11:30:32;;;;;;;12.00;8.63;;;12.80;91.30;;;;;;5110281;28;20816;-71
2021/03/01 11:32:59;;;;;;;10.30;8.03;;;12.90;91.00;;;;;;5110177;28;20939;-71
2021/03/01 11:35:25;;;;;;;10.53;8.23;;;12.90;90.90;;;;;;5109719;28;20492;-71
2021/03/01 11:37:52;;;;;;;9.77;8.77;;;13.10;90.70;;;;;;5110413;28;20516;-71
2021/03/01 11:40:19;;;;;;;12.93;9.43;;;13.20;89.90;;;;;;5110538;28;20448;-71
2021/03/01 11:42:45;;;;;;;12.40;8.80;;;13.20;88.20;;;;;;5107826;28;20429;-71
2021/03/01 11:45:12;;;;;;;8.90;7.70;;;13.20;88.60;;;;;;5105977;28;20454;-70
2021/03/01 11:47:39;;;;;;;8.70;7.17;;;13.50;87.90;;;;;;5110309;28;20467;-71
2021/03/01 11:50:08;;;;;;;9.63;7.57;;;13.80;87.10;;;;;;5109823;27;20479;-69
2021/03/01 11:52:34;;;;;;;8.40;7.33;;;14.00;82.20;;;;;;5110285;28;20939;-70
2021/03/01 11:55:00;;;;;;;8.60;6.43;;;14.00;81.90;;;;;;5109281;28;20552;-71
2021/03/01 11:57:27;;;;;;;8.63;6.50;;;14.20;80.90;;;;;;5109980;28;20494;-69
2021/03/01 11:59:53;;;;;;;5.93;5.30;;;14.40;80.30;;;;;;5110120;28;20433;-69
2021/03/01 12:02:20;;;;;;;5.80;5.10;;;14.70;77.70;;;;;;5109563;28;20529;-69
2021/03/01 12:04:46;;;;;;;7.10;5.40;;;15.00;76.20;;;;;;5109363;28;20472;-69
2021/03/01 12:07:14;;;;;;;6.30;4.80;;;15.30;73.50;;;;;;5110315;28;20437;-69
2021/03/01 12:09:40;;;;;;;7.57;5.97;;;16.10;75.80;;;;;;5109540;28;21254;-70
2021/03/01 12:12:06;;;;;;;7.33;6.53;;;17.60;69.90;;;;;;5109739;28;20445;-71
2021/03/01 12:14:33;;;;;;;6.90;6.03;;;18.20;64.40;;;;;;5100656;28;21096;-71
2021/03/01 12:16:59;;;;;;;7.23;5.80;;;17.70;61.20;;;;;;5110385;28;20472;-69
2021/03/01 12:19:25;;;;;;;6.13;5.53;;;17.60;61.40;;;;;;5110581;28;20467;-69
2021/03/01 12:21:52;;;;;;;6.07;5.47;;;19.00;61.80;;;;;;5110164;28;20528;-67
2021/03/01 12:24:19;;;;;;;7.43;6.47;;;19.50;58.70;;;;;;5109336;28;20560;-69
2021/03/01 12:26:45;;;;;;;6.83;6.10;;;20.70;58.70;;;;;;5109708;28;20445;-69
2021/03/01 12:29:12;;;;;;;8.23;7.43;;;21.70;54.60;;;;;;5109904;28;20477;-71
2021/03/01 12:31:38;;;;;;;7.77;6.60;;;21.00;51.20;;;;;;5109834;28;20815;-69
2021/03/01 12:34:05;;;;;;;8.93;7.00;;;19.70;52.90;;;;;;5109811;28;20460;-73
2021/03/01 12:36:31;;;;;;;8.17;6.40;;;18.80;54.60;;;;;;5110313;28;20524;-75
2021/03/01 12:38:58;;;;;;;8.27;6.50;;;18.70;56.40;;;;;;5089967;28;20450;-70
2021/03/01 12:41:25;;;;;;;9.23;7.30;;;19.20;55.40;;;;;;5088979;28;20525;-70